Time;durP1;ratioP1;P1;durP2;ratioP2;P2;SDS_P1;SDS_P2;PMS_P1;PMS_P2;Temp;Humidity;BMP_temperature;BMP_pressure;BME280_temperature;BME280_humidity;BME280_pressure;Samples;Min_cycle;Max_cycle;Signal;HPM_P1;HPM_P2
2021/04/03 00:02:24;;;;;;;15.03;2.97;;;4.90;99.90;;;;;;4961004;28;20187;-77
2021/04/03 00:04:50;;;;;;;13.00;2.90;;;4.60;99.90;;;;;;4961521;28;20270;-77
2021/04/03 00:07:16;;;;;;;11.67;2.67;;;;;;;;;;4961637;28;20476;-77
2021/04/03 00:09:41;;;;;;;14.37;2.80;;;4.80;99.90;;;;;;4993760;28;20201;-77
2021/04/03 00:12:08;;;;;;;14.20;2.67;;;4.80;99.90;;;;;;4993267;28;20669;-77
2021/04/03 00:14:34;;;;;;;15.20;2.40;;;4.80;99.90;;;;;;4977422;28;20200;-77
2021/04/03 00:16:59;;;;;;;10.23;2.50;;;4.80;99.90;;;;;;4994936;28;20181;-77
2021/04/03 00:19:25;;;;;;;11.83;3.10;;;;;;;;;;4977432;28;20208;-78
2021/04/03 00:21:51;;;;;;;13.97;2.83;;;4.80;99.90;;;;;;4977306;28;20178;-78
2021/04/03 00:24:16;;;;;;;11.23;2.93;;;4.80;99.90;;;;;;4978826;28;20229;-78
2021/04/03 00:26:42;;;;;;;14.07;2.80;;;4.80;99.90;;;;;;4977444;28;20179;-78
2021/04/03 00:29:07;;;;;;;13.47;3.07;;;4.80;99.90;;;;;;4960639;28;20670;-78
2021/04/03 00:31:33;;;;;;;10.20;2.57;;;4.90;99.90;;;;;;4961168;28;20178;-77
2021/04/03 00:33:58;;;;;;;10.60;2.70;;;4.90;99.90;;;;;;4960815;28;20656;-77
2021/04/03 00:36:24;;;;;;;13.40;3.20;;;4.90;99.90;;;;;;4977210;28;20668;-77
2021/04/03 00:38:50;;;;;;;12.87;2.77;;;4.90;99.90;;;;;;4960662;28;20648;-77
2021/04/03 00:41:15;;;;;;;15.13;3.23;;;4.90;99.90;;;;;;4976761;28;20215;-77
2021/04/03 00:43:41;;;;;;;14.80;3.00;;;4.90;99.90;;;;;;4960407;28;20179;-77
2021/04/03 00:46:06;;;;;;;14.60;3.00;;;5.00;99.90;;;;;;4976906;28;20224;-77
2021/04/03 00:48:32;;;;;;;15.37;3.40;;;4.90;99.90;;;;;;4960582;28;20231;-77
2021/04/03 00:50:57;;;;;;;14.27;3.37;;;4.90;99.90;;;;;;4960624;28;20195;-77
2021/04/03 00:53:26;;;;;;;13.70;3.37;;;5.00;99.90;;;;;;4960348;28;20224;-77
2021/04/03 00:55:52;;;;;;;14.27;3.10;;;5.00;99.90;;;;;;4976861;28;20186;-77
2021/04/03 00:58:18;;;;;;;14.47;3.00;;;5.00;99.90;;;;;;4976514;28;20174;-77
2021/04/03 01:00:45;;;;;;;13.57;3.50;;;5.10;99.90;;;;;;4976559;28;20757;-77
2021/04/03 01:03:11;;;;;;;15.97;3.70;;;5.10;99.90;;;;;;4976680;28;20168;-77
2021/04/03 01:05:37;;;;;;;19.03;3.80;;;5.10;99.90;;;;;;4976453;28;20572;-77
2021/04/03 01:08:03;;;;;;;14.33;3.53;;;5.10;99.90;;;;;;4960404;28;20459;-77
2021/04/03 01:10:36;;;;;;;13.17;3.27;;;5.00;99.90;;;;;;4960207;28;20290;-77
2021/04/03 01:13:33;;;;;;;13.93;2.90;;;5.10;99.90;;;;;;4977097;28;20261;-77
2021/04/03 01:16:08;;;;;;;12.67;3.40;;;5.10;99.90;;;;;;4993681;28;20229;-77
2021/04/03 01:18:52;;;;;;;14.63;3.40;;;5.20;99.90;;;;;;4976992;28;20715;-77
2021/04/03 01:21:24;;;;;;;14.50;2.70;;;4.80;99.90;;;;;;4992488;28;20700;-78
2021/04/03 01:24:17;;;;;;;10.20;2.50;;;5.20;99.90;;;;;;4992613;28;20478;-78
2021/04/03 01:26:58;;;;;;;15.20;2.73;;;5.20;99.90;;;;;;4992147;28;20180;-78
2021/04/03 01:30:03;;;;;;;13.43;3.07;;;5.10;99.90;;;;;;4976170;28;20210;-78
2021/04/03 01:32:38;;;;;;;14.97;3.23;;;5.20;99.90;;;;;;4992166;28;20204;-77
2021/04/03 01:35:06;;;;;;;12.67;2.80;;;5.20;99.90;;;;;;4976954;28;20183;-77
2021/04/03 01:37:31;;;;;;;16.60;3.23;;;5.00;99.90;;;;;;4959821;28;20280;-78
2021/04/03 01:39:57;;;;;;;11.77;2.63;;;5.10;99.90;;;;;;4975579;28;20661;-77
2021/04/03 01:42:26;;;;;;;13.47;3.00;;;5.10;99.90;;;;;;4959616;28;20190;-77
2021/04/03 01:44:54;;;;;;;12.93;3.00;;;5.00;99.90;;;;;;4960038;28;20234;-77
2021/04/03 01:47:23;;;;;;;13.33;3.07;;;;;;;;;;4975791;28;20597;-77
2021/04/03 01:49:50;;;;;;;11.67;2.93;;;5.10;99.90;;;;;;4991942;28;20206;-77
2021/04/03 01:52:17;;;;;;;13.50;2.77;;;5.00;99.90;;;;;;4975685;28;20238;-77
2021/04/03 01:54:43;;;;;;;11.90;2.50;;;4.70;99.90;;;;;;4959836;28;20192;-77
2021/04/03 01:57:09;;;;;;;13.73;2.63;;;5.00;99.90;;;;;;4975563;28;20673;-77
2021/04/03 01:59:34;;;;;;;9.30;2.63;;;4.90;99.90;;;;;;4975932;28;20771;-77
2021/04/03 02:02:00;;;;;;;10.83;2.63;;;4.90;99.90;;;;;;4976036;28;20851;-77
2021/04/03 02:04:25;;;;;;;11.47;3.00;;;4.80;99.90;;;;;;4958922;28;20181;-77
2021/04/03 02:06:51;;;;;;;15.23;2.93;;;4.80;99.90;;;;;;4959417;28;20179;-77
2021/04/03 02:09:16;;;;;;;12.47;2.60;;;4.90;99.90;;;;;;4979364;28;20689;-76
2021/04/03 02:11:44;;;;;;;11.70;2.57;;;4.90;99.90;;;;;;4979707;28;20694;-76
2021/04/03 02:14:09;;;;;;;13.80;3.10;;;4.80;99.90;;;;;;4963512;28;20187;-76
2021/04/03 02:16:35;;;;;;;11.47;2.60;;;4.90;99.90;;;;;;4979590;28;20551;-77
2021/04/03 02:19:10;;;;;;;16.93;3.30;;;4.90;99.90;;;;;;4963283;28;20179;-79
2021/04/03 02:21:36;;;;;;;12.30;2.90;;;5.00;99.90;;;;;;4963733;28;20200;-77
2021/04/03 02:24:05;;;;;;;14.27;3.23;;;4.80;99.90;;;;;;4963345;28;20266;-77
2021/04/03 02:26:35;;;;;;;13.20;2.80;;;4.80;99.90;;;;;;4962538;28;20659;-78
2021/04/03 02:29:01;;;;;;;11.10;2.47;;;4.90;99.90;;;;;;4979476;28;20171;-76
2021/04/03 02:31:28;;;;;;;17.77;3.10;;;4.90;99.90;;;;;;4963363;28;20186;-76
2021/04/03 02:33:54;;;;;;;13.83;2.73;;;4.70;99.90;;;;;;4963139;28;20604;-76
2021/04/03 02:36:19;;;;;;;16.13;3.20;;;4.80;99.90;;;;;;4962978;28;20270;-77
2021/04/03 02:38:47;;;;;;;14.80;2.80;;;4.70;99.90;;;;;;4963202;28;20180;-76
2021/04/03 02:41:14;;;;;;;13.53;2.80;;;4.70;99.90;;;;;;4962975;28;20257;-76
2021/04/03 02:43:55;;;;;;;16.13;3.10;;;4.70;99.90;;;;;;4963420;28;20172;-76
2021/04/03 02:46:44;;;;;;;17.13;3.13;;;4.80;99.90;;;;;;4995194;28;20647;-76
2021/04/03 02:49:13;;;;;;;20.37;2.73;;;4.60;99.90;;;;;;4965306;28;20258;-77
2021/04/03 02:51:42;;;;;;;13.40;3.00;;;;;;;;;;4979382;28;20186;-76
2021/04/03 02:54:08;;;;;;;18.43;3.07;;;4.20;99.90;;;;;;4979144;28;20181;-76
2021/04/03 02:56:35;;;;;;;17.17;3.23;;;4.60;99.90;;;;;;4978978;28;20549;-76
2021/04/03 02:59:00;;;;;;;15.10;2.80;;;4.20;99.90;;;;;;4963724;28;20194;-76
2021/04/03 03:01:26;;;;;;;15.97;2.93;;;4.10;99.90;;;;;;4963206;28;20299;-77
2021/04/03 03:03:52;;;;;;;10.70;3.10;;;;;;;;;;4962953;28;20171;-76
2021/04/03 03:06:19;;;;;;;14.93;2.70;;;4.10;99.90;;;;;;4978777;28;20258;-76
2021/04/03 03:08:44;;;;;;;12.30;2.43;;;4.00;99.90;;;;;;4962664;28;20597;-76
2021/04/03 03:11:10;;;;;;;14.30;3.10;;;4.30;99.90;;;;;;4962574;28;20205;-77
2021/04/03 03:13:35;;;;;;;10.43;2.67;;;3.90;99.90;;;;;;4962846;28;20268;-76
2021/04/03 03:16:04;;;;;;;9.17;2.40;;;3.90;99.90;;;;;;4962817;28;20208;-76
2021/04/03 03:18:31;;;;;;;15.40;2.70;;;;;;;;;;4962679;28;20278;-77
2021/04/03 03:20:57;;;;;;;14.20;3.33;;;3.90;99.90;;;;;;4978519;28;20309;-76
2021/04/03 03:23:23;;;;;;;12.97;2.83;;;3.80;99.90;;;;;;4962220;28;20175;-76
2021/04/03 03:25:48;;;;;;;11.70;2.70;;;3.70;99.90;;;;;;4962585;28;20178;-77
2021/04/03 03:28:14;;;;;;;14.30;2.70;;;3.60;99.90;;;;;;4962267;28;20253;-76
2021/04/03 03:30:40;;;;;;;14.03;2.80;;;3.60;99.90;;;;;;4962632;28;20580;-76
2021/04/03 03:33:05;;;;;;;12.33;2.73;;;3.60;99.90;;;;;;4962527;28;20184;-76
2021/04/03 03:35:31;;;;;;;13.37;3.40;;;3.50;99.90;;;;;;4963109;28;20179;-77
2021/04/03 03:37:56;;;;;;;10.80;2.80;;;3.40;99.90;;;;;;4964157;28;20244;-76
2021/04/03 03:40:27;;;;;;;15.60;2.70;;;3.50;99.90;;;;;;4966448;28;20205;-76
2021/04/03 03:42:53;;;;;;;12.43;2.80;;;3.40;99.90;;;;;;4998101;28;20592;-77
2021/04/03 03:45:19;;;;;;;15.77;2.93;;;3.40;99.90;;;;;;4966161;28;20221;-76
2021/04/03 03:47:44;;;;;;;13.80;3.23;;;3.30;99.90;;;;;;4981989;28;20186;-76
2021/04/03 03:50:10;;;;;;;14.00;3.20;;;3.30;99.90;;;;;;4965773;28;20250;-76
2021/04/03 03:52:36;;;;;;;16.30;3.17;;;3.20;99.90;;;;;;4965541;28;20276;-76
2021/04/03 03:55:02;;;;;;;13.87;3.00;;;3.20;99.90;;;;;;4982139;28;20213;-77
2021/04/03 03:57:27;;;;;;;18.60;3.20;;;2.80;99.90;;;;;;4965213;28;20196;-76
2021/04/03 03:59:53;;;;;;;15.47;3.00;;;3.20;99.90;;;;;;4964493;28;20227;-77
2021/04/03 04:02:18;;;;;;;13.47;2.97;;;3.10;99.90;;;;;;4965618;28;20188;-76
2021/04/03 04:04:44;;;;;;;17.57;3.03;;;2.60;99.90;;;;;;4965206;28;20228;-76
2021/04/03 04:07:10;;;;;;;17.00;4.07;;;3.10;99.90;;;;;;4981475;28;20642;-76
2021/04/03 04:09:35;;;;;;;18.67;2.93;;;3.00;99.90;;;;;;4981443;28;20199;-78
2021/04/03 04:12:08;;;;;;;16.87;3.30;;;3.10;99.90;;;;;;4965372;28;20292;-76
2021/04/03 04:14:34;;;;;;;14.70;3.53;;;3.00;99.90;;;;;;4965755;28;20269;-77
2021/04/03 04:17:00;;;;;;;13.67;2.97;;;3.00;99.90;;;;;;4981223;28;20213;-76
2021/04/03 04:19:25;;;;;;;14.77;2.63;;;2.90;99.90;;;;;;4964963;28;20250;-79
2021/04/03 04:21:51;;;;;;;16.40;2.97;;;2.90;99.90;;;;;;4980843;28;20199;-76
2021/04/03 04:24:17;;;;;;;11.10;3.10;;;3.10;99.90;;;;;;4965061;28;20183;-76
2021/04/03 04:26:43;;;;;;;12.80;2.67;;;3.20;99.90;;;;;;4964757;28;20180;-76
2021/04/03 04:29:09;;;;;;;15.60;2.90;;;2.90;99.90;;;;;;4981568;28;20181;-76
2021/04/03 04:31:34;;;;;;;14.30;3.30;;;3.30;99.90;;;;;;4964930;28;20190;-76
2021/04/03 04:34:00;;;;;;;17.40;3.27;;;3.50;99.90;;;;;;4981287;28;20254;-78
2021/04/03 04:36:25;;;;;;;20.93;3.87;;;3.60;99.90;;;;;;4964804;28;20177;-76
2021/04/03 04:38:51;;;;;;;19.23;3.70;;;3.60;99.90;;;;;;4980561;28;20187;-76
2021/04/03 04:41:16;;;;;;;15.10;2.97;;;3.70;99.90;;;;;;4963996;28;20210;-76
2021/04/03 04:43:42;;;;;;;16.57;3.10;;;3.70;99.90;;;;;;4981038;28;20182;-78
2021/04/03 04:46:07;;;;;;;18.90;3.60;;;3.80;99.90;;;;;;4981374;28;20235;-76
2021/04/03 04:48:33;;;;;;;17.17;3.23;;;3.90;99.90;;;;;;4964100;28;20227;-76
2021/04/03 04:50:58;;;;;;;15.67;3.77;;;3.90;99.90;;;;;;4964989;28;20302;-77
2021/04/03 04:53:24;;;;;;;17.13;2.90;;;3.70;99.90;;;;;;4980547;28;20261;-76
2021/04/03 04:55:49;;;;;;;15.30;3.60;;;4.10;99.90;;;;;;4997123;28;20267;-76
2021/04/03 04:58:16;;;;;;;20.57;3.50;;;4.00;99.90;;;;;;4980588;28;20186;-76
2021/04/03 05:00:41;;;;;;;13.53;3.47;;;4.00;99.90;;;;;;4980319;28;20230;-76
2021/04/03 05:03:07;;;;;;;16.90;3.33;;;3.90;99.90;;;;;;4963784;28;20523;-76
2021/04/03 05:05:33;;;;;;;17.97;3.50;;;;;;;;;;4964057;28;20270;-77
2021/04/03 05:07:59;;;;;;;17.83;3.50;;;4.10;99.90;;;;;;4979869;28;20186;-76
2021/04/03 05:10:25;;;;;;;15.27;3.73;;;;;;;;;;4980590;28;20297;-76
2021/04/03 05:12:51;;;;;;;17.40;3.50;;;;;;;;;;4996607;28;20181;-76
2021/04/03 05:15:17;;;;;;;14.73;4.30;;;;;;;;;;4996096;28;20228;-76
2021/04/03 05:17:42;;;;;;;20.20;4.23;;;;;;;;;;4979681;28;20647;-76
2021/04/03 05:20:10;;;;;;;15.83;3.80;;;4.50;99.90;;;;;;4979592;28;20221;-77
2021/04/03 05:22:35;;;;;;;14.33;3.63;;;4.60;99.90;;;;;;4980369;28;20178;-78
2021/04/03 05:25:01;;;;;;;20.37;4.10;;;4.50;99.90;;;;;;4963438;28;20243;-76
2021/04/03 05:27:27;;;;;;;16.87;4.10;;;4.50;99.90;;;;;;4996846;28;20175;-76
2021/04/03 05:29:52;;;;;;;15.83;3.73;;;4.50;99.90;;;;;;4979391;28;20198;-76
2021/04/03 05:32:18;;;;;;;23.83;4.37;;;4.60;99.90;;;;;;4995888;28;20206;-76
2021/04/03 05:34:44;;;;;;;18.00;3.90;;;4.60;99.90;;;;;;4978970;28;20180;-76
2021/04/03 05:37:09;;;;;;;23.13;4.27;;;4.60;99.90;;;;;;4963318;28;20170;-76
2021/04/03 05:39:35;;;;;;;24.90;4.77;;;4.70;99.90;;;;;;4995558;28;20289;-76
2021/04/03 05:42:01;;;;;;;20.20;4.33;;;4.70;99.90;;;;;;4979527;28;20546;-76
2021/04/03 05:44:26;;;;;;;18.67;3.70;;;4.70;99.90;;;;;;4963002;28;20190;-76
2021/04/03 05:46:52;;;;;;;23.53;4.30;;;4.80;99.90;;;;;;4963181;28;20271;-76
2021/04/03 05:49:18;;;;;;;22.33;5.40;;;4.80;99.90;;;;;;4963080;28;20219;-77
2021/04/03 05:51:44;;;;;;;20.73;4.60;;;4.90;99.90;;;;;;4963245;28;20611;-77
2021/04/03 05:54:10;;;;;;;21.97;4.80;;;4.90;99.90;;;;;;4979193;28;20180;-76
2021/04/03 05:56:35;;;;;;;22.17;4.67;;;4.90;99.90;;;;;;4962903;28;20245;-77
2021/04/03 05:59:01;;;;;;;18.77;4.60;;;4.90;99.90;;;;;;4963662;28;20196;-76
2021/04/03 06:01:27;;;;;;;22.23;4.47;;;4.90;99.90;;;;;;4979194;28;20204;-76
2021/04/03 06:03:54;;;;;;;25.60;5.00;;;4.90;99.90;;;;;;4962783;28;20188;-76
2021/04/03 06:06:20;;;;;;;24.27;4.80;;;5.00;99.90;;;;;;4979085;28;20174;-76
2021/04/03 06:08:46;;;;;;;25.63;5.73;;;5.00;99.90;;;;;;4978863;28;20183;-76
2021/04/03 06:11:18;;;;;;;20.50;4.93;;;5.00;99.90;;;;;;4978649;28;20202;-76
2021/04/03 06:13:56;;;;;;;23.73;5.67;;;5.00;99.90;;;;;;4996014;28;20303;-76
2021/04/03 06:16:32;;;;;;;22.50;5.27;;;5.10;99.90;;;;;;4980702;28;20219;-76
2021/04/03 06:19:15;;;;;;;23.40;5.40;;;5.10;99.90;;;;;;4979496;28;20178;-77
2021/04/03 06:21:45;;;;;;;20.23;4.80;;;5.10;99.90;;;;;;4964446;28;20200;-77
2021/04/03 06:24:21;;;;;;;21.67;5.10;;;5.20;99.90;;;;;;4987751;28;20588;-76
2021/04/03 06:26:53;;;;;;;19.10;5.03;;;5.20;99.90;;;;;;4997631;28;20183;-78
2021/04/03 06:29:28;;;;;;;19.40;5.10;;;5.20;99.90;;;;;;5013938;28;20213;-76
2021/04/03 06:31:55;;;;;;;23.50;5.07;;;5.20;99.90;;;;;;5014623;28;20186;-76
2021/04/03 06:34:38;;;;;;;24.63;5.60;;;5.20;99.90;;;;;;4997909;28;20189;-76
2021/04/03 06:37:05;;;;;;;25.17;6.10;;;5.30;99.90;;;;;;4998650;28;20168;-76
2021/04/03 06:39:31;;;;;;;22.77;5.50;;;5.20;99.90;;;;;;5014673;28;20191;-77
2021/04/03 06:41:56;;;;;;;23.33;5.53;;;5.20;99.90;;;;;;4998255;28;20285;-76
2021/04/03 06:44:22;;;;;;;17.43;4.93;;;5.20;99.90;;;;;;4998370;28;20187;-76
2021/04/03 06:46:49;;;;;;;19.83;5.37;;;5.20;99.90;;;;;;4981754;28;20285;-76
2021/04/03 06:49:15;;;;;;;24.37;5.47;;;5.30;99.90;;;;;;4997986;28;20179;-78
2021/04/03 06:51:41;;;;;;;23.63;5.63;;;5.30;99.90;;;;;;4997896;28;20189;-76
2021/04/03 06:54:07;;;;;;;26.63;5.90;;;5.30;99.90;;;;;;4997848;28;20178;-76
2021/04/03 06:56:37;;;;;;;21.30;5.23;;;5.30;99.90;;;;;;4998372;28;20183;-76
2021/04/03 06:59:07;;;;;;;24.27;6.07;;;5.30;99.90;;;;;;4998281;28;20195;-76
2021/04/03 07:01:37;;;;;;;22.93;6.07;;;5.30;99.90;;;;;;4998060;28;20217;-76
2021/04/03 07:04:09;;;;;;;23.33;5.37;;;5.30;99.90;;;;;;5014519;28;20180;-76
2021/04/03 07:06:35;;;;;;;22.23;5.53;;;5.30;99.90;;;;;;4998682;28;20194;-76
2021/04/03 07:09:01;;;;;;;24.23;6.03;;;5.30;99.90;;;;;;4982423;28;20175;-76
2021/04/03 07:11:26;;;;;;;29.80;6.27;;;5.20;99.90;;;;;;4982126;28;20664;-76
2021/04/03 07:13:52;;;;;;;29.50;6.60;;;5.20;99.90;;;;;;5001291;28;20181;-76
2021/04/03 07:16:17;;;;;;;21.90;5.63;;;5.20;99.90;;;;;;5002273;28;20181;-76
2021/04/03 07:18:43;;;;;;;26.57;5.80;;;5.20;99.90;;;;;;5001671;28;20181;-76
2021/04/03 07:21:08;;;;;;;22.33;5.50;;;5.30;99.90;;;;;;5001850;28;20236;-77
2021/04/03 07:23:38;;;;;;;22.67;6.33;;;5.30;99.90;;;;;;5001524;28;20189;-76
2021/04/03 07:26:04;;;;;;;20.53;5.87;;;5.40;99.90;;;;;;5001622;28;20198;-76
2021/04/03 07:28:39;;;;;;;19.67;5.57;;;5.40;99.90;;;;;;5001181;28;20662;-76
2021/04/03 07:31:06;;;;;;;21.17;5.70;;;5.40;99.90;;;;;;5000265;28;20214;-76
2021/04/03 07:33:31;;;;;;;22.97;6.33;;;5.50;99.90;;;;;;5001036;28;20203;-76
2021/04/03 07:35:58;;;;;;;23.83;5.70;;;5.50;99.90;;;;;;5017716;28;20233;-76
2021/04/03 07:38:31;;;;;;;24.87;6.03;;;5.50;99.90;;;;;;5001262;28;20183;-76
2021/04/03 07:41:02;;;;;;;30.80;6.33;;;5.60;99.90;;;;;;5000856;28;20214;-76
2021/04/03 07:43:31;;;;;;;19.43;5.57;;;5.60;99.90;;;;;;5001894;28;20176;-76
2021/04/03 07:45:57;;;;;;;24.60;6.67;;;5.70;99.90;;;;;;5017505;28;20211;-76
2021/04/03 07:48:38;;;;;;;27.40;6.93;;;5.60;99.90;;;;;;5000694;28;20183;-76
2021/04/03 07:51:07;;;;;;;22.87;6.67;;;5.60;99.90;;;;;;5017563;28;20255;-76
2021/04/03 07:53:37;;;;;;;24.03;6.13;;;5.60;99.90;;;;;;5001370;28;20181;-77
2021/04/03 07:56:03;;;;;;;28.77;6.73;;;5.70;99.90;;;;;;5001063;28;20199;-77
2021/04/03 07:58:29;;;;;;;23.87;6.70;;;5.70;99.90;;;;;;4984745;28;20230;-77
2021/04/03 08:00:56;;;;;;;24.23;6.03;;;5.70;99.90;;;;;;5000652;28;20207;-76
2021/04/03 08:03:26;;;;;;;23.83;5.93;;;5.80;99.90;;;;;;5001726;28;20265;-76
2021/04/03 08:06:02;;;;;;;27.13;6.70;;;5.90;99.90;;;;;;5001572;28;20609;-76
2021/04/03 08:08:29;;;;;;;29.53;6.63;;;5.80;99.90;;;;;;5000981;28;20213;-76
2021/04/03 08:11:09;;;;;;;27.67;7.00;;;5.80;99.90;;;;;;5000707;28;20203;-77
2021/04/03 08:13:36;;;;;;;25.93;6.70;;;5.80;99.90;;;;;;5016833;28;20179;-78
2021/04/03 08:16:06;;;;;;;27.20;6.07;;;6.10;99.90;;;;;;5000421;28;20193;-77
2021/04/03 08:18:33;;;;;;;24.30;5.83;;;6.10;99.90;;;;;;5001432;28;20191;-77
2021/04/03 08:20:58;;;;;;;26.87;6.87;;;6.20;99.90;;;;;;5000309;28;20220;-76
2021/04/03 08:23:32;;;;;;;20.80;6.13;;;6.30;99.90;;;;;;5016064;28;20186;-76
2021/04/03 08:25:57;;;;;;;22.97;5.90;;;6.90;99.90;;;;;;5000324;28;20226;-76
2021/04/03 08:28:23;;;;;;;20.70;6.13;;;6.70;99.90;;;;;;5000406;28;20179;-76
2021/04/03 08:30:48;;;;;;;20.93;5.93;;;6.70;99.90;;;;;;5000189;28;20678;-76
2021/04/03 08:33:14;;;;;;;23.80;6.27;;;6.90;99.90;;;;;;5000477;28;20184;-77
2021/04/03 08:35:47;;;;;;;23.53;6.30;;;6.90;99.90;;;;;;4999403;28;20559;-76
2021/04/03 08:38:21;;;;;;;17.33;6.07;;;7.10;99.90;;;;;;5000151;28;20164;-76
2021/04/03 08:40:47;;;;;;;20.60;5.57;;;7.30;99.90;;;;;;4999102;28;20560;-76
2021/04/03 08:43:17;;;;;;;24.57;6.17;;;7.50;99.90;;;;;;4998651;28;20207;-76
2021/04/03 08:45:43;;;;;;;24.33;6.40;;;7.50;99.90;;;;;;4999189;28;20184;-76
2021/04/03 08:48:09;;;;;;;29.10;6.43;;;7.50;99.90;;;;;;4999072;28;20191;-76
2021/04/03 08:50:35;;;;;;;23.47;5.87;;;7.50;99.90;;;;;;4998944;28;20253;-76
2021/04/03 08:53:01;;;;;;;24.97;6.40;;;7.50;99.90;;;;;;4998879;28;20188;-76
2021/04/03 08:55:27;;;;;;;25.57;5.70;;;7.60;99.90;;;;;;4998676;28;20184;-77
2021/04/03 08:57:53;;;;;;;22.23;5.97;;;7.80;99.90;;;;;;4982066;28;20190;-77
2021/04/03 09:00:19;;;;;;;25.23;6.13;;;8.00;99.90;;;;;;4981363;28;20227;-78
2021/04/03 09:02:45;;;;;;;25.23;6.20;;;8.20;99.90;;;;;;4997328;28;20189;-77
2021/04/03 09:05:11;;;;;;;24.23;5.70;;;8.20;99.90;;;;;;4997531;28;20172;-77
2021/04/03 09:07:37;;;;;;;21.30;6.33;;;8.20;99.90;;;;;;4997167;28;20291;-78
2021/04/03 09:10:11;;;;;;;21.13;5.60;;;8.10;99.90;;;;;;4997189;28;20221;-78
2021/04/03 09:12:37;;;;;;;25.30;6.30;;;8.40;99.90;;;;;;4997322;28;20690;-80
2021/04/03 09:15:03;;;;;;;19.97;5.07;;;8.70;99.90;;;;;;4997174;28;20177;-79
2021/04/03 09:17:28;;;;;;;23.23;5.93;;;8.60;99.90;;;;;;4997862;28;20192;-77
2021/04/03 09:20:13;;;;;;;19.83;5.93;;;8.60;99.90;;;;;;5013536;28;20203;-80
2021/04/03 09:22:40;;;;;;;18.60;5.63;;;10.30;99.90;;;;;;4997238;28;20675;-77
2021/04/03 09:25:10;;;;;;;14.07;5.33;;;12.00;99.90;;;;;;4996902;28;20168;-78
2021/04/03 09:27:35;;;;;;;22.17;5.53;;;13.10;99.90;;;;;;4996842;28;20173;-78
2021/04/03 09:30:05;;;;;;;18.37;5.27;;;13.30;99.90;;;;;;4996566;28;20238;-78
2021/04/03 09:32:43;;;;;;;15.37;5.00;;;13.80;99.90;;;;;;5013316;28;20173;-79
2021/04/03 09:35:10;;;;;;;16.20;5.03;;;14.80;99.90;;;;;;5012510;28;20173;-80
2021/04/03 09:37:36;;;;;;;18.13;5.20;;;15.10;99.90;;;;;;4995885;28;20272;-77
2021/04/03 09:40:02;;;;;;;22.07;5.40;;;14.80;99.90;;;;;;4995361;28;20241;-77
2021/04/03 09:42:29;;;;;;;19.43;5.80;;;15.20;99.90;;;;;;4995364;28;20191;-77
2021/04/03 09:44:56;;;;;;;16.90;5.20;;;15.40;99.90;;;;;;4995611;28;20205;-78
2021/04/03 09:47:22;;;;;;;16.07;5.23;;;15.50;99.90;;;;;;4995400;28;20210;-77
2021/04/03 09:49:47;;;;;;;20.07;5.50;;;15.80;99.90;;;;;;4995619;28;20227;-78
2021/04/03 09:52:13;;;;;;;14.90;4.53;;;15.70;99.90;;;;;;4979052;28;20659;-78
2021/04/03 09:54:39;;;;;;;22.80;5.97;;;15.40;99.90;;;;;;4995337;28;20175;-77
2021/04/03 09:57:05;;;;;;;17.43;5.77;;;15.30;99.90;;;;;;4979529;28;20236;-80
2021/04/03 09:59:30;;;;;;;17.33;5.30;;;15.30;99.90;;;;;;4995669;28;20243;-77
2021/04/03 10:01:56;;;;;;;20.30;5.40;;;14.80;99.90;;;;;;4995551;28;20209;-78
2021/04/03 10:04:22;;;;;;;16.30;5.13;;;14.00;99.90;;;;;;4979465;28;20189;-78
2021/04/03 10:06:48;;;;;;;13.40;4.93;;;13.10;99.90;;;;;;4995924;28;20183;-77
2021/04/03 10:09:14;;;;;;;22.10;5.63;;;12.80;99.90;;;;;;4995342;28;20562;-78
2021/04/03 10:11:39;;;;;;;17.50;5.67;;;12.50;99.90;;;;;;4995730;28;20194;-79
2021/04/03 10:14:05;;;;;;;19.53;5.37;;;12.00;99.90;;;;;;4995344;28;20179;-77
2021/04/03 10:16:30;;;;;;;17.60;5.03;;;11.20;99.90;;;;;;4995301;28;20183;-77
2021/04/03 10:18:56;;;;;;;23.10;5.33;;;11.10;99.90;;;;;;4979550;28;20241;-79
2021/04/03 10:21:22;;;;;;;14.53;6.00;;;11.30;99.90;;;;;;4996176;28;20245;-77
2021/04/03 10:23:47;;;;;;;18.33;5.83;;;12.30;99.90;;;;;;4995183;28;20174;-80
2021/04/03 10:26:13;;;;;;;19.17;6.07;;;13.10;99.90;;;;;;4995243;28;20175;-77
2021/04/03 10:28:39;;;;;;;19.93;5.70;;;13.50;99.90;;;;;;4995266;28;20233;-78
2021/04/03 10:31:04;;;;;;;16.90;5.87;;;14.00;99.90;;;;;;4995118;28;20195;-78
2021/04/03 10:33:30;;;;;;;17.13;5.13;;;14.40;99.90;;;;;;4995010;28;20677;-79
2021/04/03 10:35:58;;;;;;;18.07;6.03;;;;;;;;;;5011646;28;20253;-77
2021/04/03 10:38:24;;;;;;;16.97;5.60;;;14.30;99.90;;;;;;4995265;28;20190;-79
2021/04/03 10:40:49;;;;;;;15.20;5.50;;;13.70;99.90;;;;;;4978884;28;20612;-78
2021/04/03 10:43:15;;;;;;;20.13;5.70;;;12.90;99.90;;;;;;4994855;28;20180;-77
2021/04/03 10:45:43;;;;;;;18.27;5.80;;;12.90;99.90;;;;;;4994502;28;20271;-78
2021/04/03 10:48:09;;;;;;;18.63;5.80;;;12.90;99.90;;;;;;4997490;28;20167;-78
2021/04/03 10:50:36;;;;;;;20.40;5.27;;;13.20;99.90;;;;;;4982901;28;20203;-78
2021/04/03 10:53:02;;;;;;;15.23;5.03;;;13.20;99.90;;;;;;5015790;28;20176;-77
2021/04/03 10:55:31;;;;;;;16.07;5.13;;;11.90;99.90;;;;;;4999044;28;20249;-77
2021/04/03 10:57:56;;;;;;;15.43;5.50;;;12.90;99.90;;;;;;4999796;28;20178;-78
2021/04/03 11:00:24;;;;;;;17.50;5.73;;;13.40;99.90;;;;;;4982814;28;20663;-78
2021/04/03 11:02:50;;;;;;;12.03;4.77;;;13.50;99.90;;;;;;4983291;28;20659;-77
2021/04/03 11:05:18;;;;;;;15.87;5.40;;;13.20;99.90;;;;;;4999154;28;20187;-78
2021/04/03 11:07:46;;;;;;;11.43;4.77;;;13.30;99.90;;;;;;4982822;28;20199;-77
2021/04/03 11:10:12;;;;;;;14.70;5.43;;;13.30;99.90;;;;;;4999099;28;20713;-77
2021/04/03 11:12:38;;;;;;;13.63;5.43;;;13.00;99.90;;;;;;4999740;28;20259;-79
2021/04/03 11:15:05;;;;;;;18.00;6.33;;;12.80;99.90;;;;;;4983364;28;20182;-80
2021/04/03 11:17:30;;;;;;;18.10;6.43;;;13.00;99.90;;;;;;4999704;28;20183;-79
2021/04/03 11:19:56;;;;;;;13.73;5.77;;;13.10;99.90;;;;;;4999803;28;20192;-80
2021/04/03 11:22:22;;;;;;;17.53;6.07;;;13.00;99.90;;;;;;4982749;28;20238;-80
2021/04/03 11:24:48;;;;;;;13.23;5.93;;;12.50;99.90;;;;;;4999491;28;20605;-80
2021/04/03 11:27:16;;;;;;;15.10;5.90;;;12.30;99.90;;;;;;5015587;28;20172;-80
2021/04/03 11:29:41;;;;;;;15.87;7.50;;;12.20;99.90;;;;;;5015228;28;20195;-79
2021/04/03 11:32:10;;;;;;;18.47;6.40;;;;;;;;;;4998344;28;20229;-79
2021/04/03 11:34:35;;;;;;;16.67;6.40;;;13.20;99.90;;;;;;5015245;28;20714;-80
2021/04/03 11:37:01;;;;;;;16.53;5.90;;;13.70;99.90;;;;;;4998556;28;20267;-79
2021/04/03 11:39:27;;;;;;;18.47;6.50;;;14.00;99.90;;;;;;4998401;28;20294;-79
2021/04/03 11:41:52;;;;;;;16.20;6.40;;;12.90;99.90;;;;;;4998069;28;20207;-80
2021/04/03 11:44:23;;;;;;;19.73;7.60;;;13.80;99.90;;;;;;4997448;28;20238;-80
2021/04/03 11:46:48;;;;;;;17.20;6.60;;;13.80;99.90;;;;;;4998595;28;20566;-79
2021/04/03 11:49:17;;;;;;;14.43;6.10;;;14.20;99.90;;;;;;5014031;28;20184;-80
2021/04/03 11:51:42;;;;;;;15.20;6.67;;;14.10;99.90;;;;;;4997742;28;20195;-79
2021/04/03 11:54:08;;;;;;;16.40;6.30;;;14.40;99.90;;;;;;4997692;28;20578;-79
2021/04/03 11:56:34;;;;;;;14.97;5.57;;;14.30;99.90;;;;;;4997410;28;20183;-79
2021/04/03 11:58:59;;;;;;;10.03;4.97;;;14.10;99.90;;;;;;4981613;28;20195;-80
2021/04/03 12:01:25;;;;;;;16.87;6.40;;;13.30;99.90;;;;;;4999135;28;20215;-80
2021/04/03 12:03:50;;;;;;;13.77;6.30;;;13.70;99.90;;;;;;4998846;28;20190;-80
2021/04/03 12:06:16;;;;;;;17.63;6.73;;;13.50;99.90;;;;;;4982813;28;20179;-80
2021/04/03 12:08:41;;;;;;;20.43;6.73;;;14.00;99.90;;;;;;4999858;28;20176;-80
2021/04/03 12:11:07;;;;;;;14.47;5.77;;;14.20;99.90;;;;;;4998529;28;20204;-80
2021/04/03 12:13:32;;;;;;;13.37;5.00;;;14.10;99.90;;;;;;4998493;28;20183;-80
2021/04/03 12:15:58;;;;;;;14.63;5.17;;;14.10;99.90;;;;;;4982659;28;20179;-80
2021/04/03 12:18:24;;;;;;;11.63;4.83;;;14.20;99.90;;;;;;4999174;28;20183;-80
2021/04/03 12:20:49;;;;;;;10.77;4.67;;;14.40;99.90;;;;;;4983455;28;20718;-79
2021/04/03 12:23:15;;;;;;;9.77;4.30;;;14.40;99.90;;;;;;4999891;28;20207;-78
2021/04/03 12:25:40;;;;;;;8.63;3.97;;;14.40;99.90;;;;;;5000289;28;20558;-79
2021/04/03 12:28:06;;;;;;;9.67;4.20;;;14.70;99.90;;;;;;5000688;28;20254;-79
2021/04/03 12:30:31;;;;;;;11.47;4.83;;;14.90;99.90;;;;;;5017130;28;20588;-79
2021/04/03 12:32:57;;;;;;;13.03;4.50;;;15.00;99.90;;;;;;4999056;28;20184;-80
2021/04/03 12:35:23;;;;;;;13.87;4.70;;;14.50;99.90;;;;;;5014836;28;20187;-79
2021/04/03 12:37:49;;;;;;;11.53;4.60;;;14.20;99.90;;;;;;5014723;28;20549;-79
2021/04/03 12:40:15;;;;;;;12.93;4.80;;;13.90;99.90;;;;;;4983063;28;20247;-79
2021/04/03 12:42:41;;;;;;;8.77;4.07;;;13.70;99.90;;;;;;4998832;28;20218;-79
2021/04/03 12:45:08;;;;;;;8.57;4.03;;;13.80;99.90;;;;;;4998075;28;20184;-79
2021/04/03 12:47:34;;;;;;;9.53;3.70;;;14.20;99.90;;;;;;5014990;28;20183;-78
2021/04/03 12:49:59;;;;;;;7.80;4.17;;;14.60;99.90;;;;;;4998779;28;20281;-79